Time;durP1;ratioP1;P1;durP2;ratioP2;P2;SDS_P1;SDS_P2;PMS_P1;PMS_P2;Temp;Humidity;BMP_temperature;BMP_pressure;BME280_temperature;BME280_humidity;BME280_pressure;Samples;Min_cycle;Max_cycle;Signal;HPM_P1;HPM_P2
2023/03/23 00:00:41;;;;;;;7.40;3.20;;;;;;;;;;6297173;22;20015;-92
2023/03/23 00:03:08;;;;;;;9.23;4.82;;;;;;;;;;6297309;22;20011;-91
2023/03/23 00:05:36;;;;;;;13.50;6.03;;;;;;;;;;6320147;22;20014;-91
2023/03/23 00:08:03;;;;;;;12.30;5.03;;;;;;;;;;6294853;22;20464;-91
2023/03/23 00:10:32;;;;;;;23.40;7.85;;;;;;;;;;6320896;22;20007;-91
2023/03/23 00:13:02;;;;;;;15.50;7.40;;;;;;;;;;6293723;22;20010;-91
2023/03/23 00:15:33;;;;;;;20.33;6.82;;;;;;;;;;6290463;22;20015;-91
2023/03/23 00:18:02;;;;;;;21.30;7.57;;;;;;;;;;6287828;22;20015;-91
2023/03/23 00:20:29;;;;;;;29.15;9.07;;;;;;;;;;6311580;22;20463;-91
2023/03/23 00:22:59;;;;;;;16.98;7.38;;;;;;;;;;6285758;22;20461;-91
2023/03/23 00:25:26;;;;;;;19.65;7.55;;;;;;;;;;6290507;22;20148;-91
2023/03/23 00:27:52;;;;;;;30.48;12.13;;;;;;;;;;6289622;22;20072;-90
2023/03/23 00:30:20;;;;;;;25.02;10.48;;;;;;;;;;6315667;22;20093;-92
2023/03/23 00:32:50;;;;;;;30.23;12.45;;;;;;;;;;6288590;22;20315;-92
2023/03/23 00:35:17;;;;;;;22.45;9.13;;;;;;;;;;6314600;22;20010;-92
2023/03/23 00:37:46;;;;;;;17.65;8.60;;;;;;;;;;6313626;22;20092;-93
2023/03/23 00:40:13;;;;;;;18.60;9.02;;;;;;;;;;6286184;22;20341;-92
2023/03/23 00:42:39;;;;;;;12.27;5.95;;;;;;;;;;6311582;22;20003;-92
2023/03/23 00:45:10;;;;;;;28.92;11.15;;;;;;;;;;6288587;22;20017;-92
2023/03/23 00:47:37;;;;;;;26.98;10.95;;;;;;;;;;6316031;22;20018;-93
2023/03/23 00:50:05;;;;;;;35.80;11.68;;;;;;;;;;6314178;22;20014;-92
2023/03/23 00:52:31;;;;;;;15.05;5.75;;;;;;;;;;6289867;22;20010;-93
2023/03/23 00:54:58;;;;;;;34.25;11.27;;;;;;;;;;6288942;22;20053;-93
2023/03/23 00:57:24;;;;;;;7.82;4.78;;;;;;;;;;6291290;22;20366;-92
2023/03/23 00:59:57;;;;;;;46.22;14.50;;;;;;;;;;6316468;22;20006;-93
2023/03/23 01:02:28;;;;;;;28.13;11.18;;;;;;;;;;6314369;22;20010;-93
2023/03/23 01:04:54;;;;;;;39.40;14.13;;;;;;;;;;6312814;22;20013;-92
2023/03/23 01:07:23;;;;;;;27.58;9.27;;;;;;;;;;6286911;22;20010;-93
2023/03/23 01:09:53;;;;;;;23.80;7.43;;;;;;;;;;6288468;22;20007;-92
2023/03/23 01:12:19;;;;;;;13.95;6.22;;;;;;;;;;6314538;22;20007;-92
2023/03/23 01:14:45;;;;;;;10.98;4.55;;;;;;;;;;6313698;22;20010;-91
2023/03/23 01:17:11;;;;;;;15.68;3.45;;;;;;;;;;6288449;22;20017;-92
2023/03/23 01:19:37;;;;;;;10.25;2.45;;;;;;;;;;6289564;22;20358;-92
2023/03/23 01:22:03;;;;;;;6.72;3.10;;;;;;;;;;6288861;22;20011;-92
2023/03/23 01:24:29;;;;;;;8.07;2.75;;;;;;;;;;6289027;22;20015;-92
2023/03/23 01:26:55;;;;;;;12.85;4.20;;;;;;;;;;6287950;22;20007;-93
2023/03/23 01:29:21;;;;;;;9.25;4.57;;;;;;;;;;6287632;22;20083;-92
2023/03/23 01:31:47;;;;;;;14.45;4.93;;;;;;;;;;6288229;22;20015;-92
2023/03/23 01:34:13;;;;;;;11.20;4.13;;;;;;;;;;6288648;22;20018;-92
2023/03/23 01:36:40;;;;;;;22.35;5.28;;;;;;;;;;6288702;22;20011;-93
2023/03/23 01:39:06;;;;;;;16.60;5.78;;;;;;;;;;6314096;22;20009;-94
2023/03/23 01:41:33;;;;;;;12.95;5.38;;;;;;;;;;6313911;22;20010;-93
2023/03/23 01:44:03;;;;;;;7.07;3.53;;;;;;;;;;6312674;22;19999;-92
2023/03/23 01:46:31;;;;;;;13.38;5.88;;;;;;;;;;6340865;22;20025;-92
2023/03/23 01:48:58;;;;;;;17.98;8.18;;;;;;;;;;6287283;22;20090;-93
2023/03/23 01:51:26;;;;;;;18.90;7.25;;;;;;;;;;6285892;22;20099;-92
2023/03/23 01:53:55;;;;;;;35.42;8.75;;;;;;;;;;6314396;22;20024;-93
2023/03/23 01:56:26;;;;;;;18.77;8.57;;;;;;;;;;6313057;22;20060;-92
2023/03/23 01:58:55;;;;;;;15.70;5.53;;;;;;;;;;6315253;22;20015;-93
2023/03/23 02:01:24;;;;;;;15.43;7.00;;;;;;;;;;6313042;22;20340;-93
2023/03/23 02:03:52;;;;;;;4.45;2.78;;;;;;;;;;6314068;22;20013;-93
2023/03/23 02:06:18;;;;;;;25.83;8.63;;;;;;;;;;6312744;22;20089;-92
2023/03/23 02:08:45;;;;;;;26.58;7.15;;;;;;;;;;6288273;22;20017;-92
2023/03/23 02:11:19;;;;;;;10.75;5.55;;;;;;;;;;6313453;22;20007;-92
2023/03/23 02:13:46;;;;;;;14.73;6.28;;;;;;;;;;6288528;22;20673;-93
2023/03/23 02:16:15;;;;;;;11.32;5.03;;;;;;;;;;6286386;22;20014;-93
2023/03/23 02:18:55;;;;;;;13.88;3.75;;;;;;;;;;6311980;22;20014;-92
2023/03/23 02:21:40;;;;;;;16.92;6.80;;;;;;;;;;6311856;22;20013;-92
2023/03/23 02:24:22;;;;;;;10.63;4.53;;;;;;;;;;6311739;22;20010;-93
2023/03/23 02:26:55;;;;;;;20.02;6.35;;;;;;;;;;6313157;22;20034;-92
2023/03/23 02:29:40;;;;;;;17.73;5.13;;;;;;;;;;6312331;22;20013;-93
2023/03/23 02:32:26;;;;;;;11.57;5.18;;;;;;;;;;6312591;22;20006;-92
2023/03/23 02:34:56;;;;;;;13.27;5.18;;;;;;;;;;6310289;22;20007;-93
2023/03/23 02:37:27;;;;;;;13.18;5.82;;;;;;;;;;6312788;22;20082;-92
2023/03/23 02:39:59;;;;;;;8.40;4.25;;;;;;;;;;6286687;22;20028;-91
2023/03/23 02:42:27;;;;;;;8.50;3.28;;;;;;;;;;6312920;22;20041;-92
2023/03/23 02:44:54;;;;;;;11.50;4.72;;;;;;;;;;6285984;22;20006;-92
2023/03/23 02:47:25;;;;;;;8.30;4.93;;;;;;;;;;6286403;22;20022;-92
2023/03/23 02:49:52;;;;;;;10.15;4.07;;;;;;;;;;6310749;22;20013;-93
2023/03/23 02:52:22;;;;;;;19.85;3.88;;;;;;;;;;6340430;22;19999;-93
2023/03/23 02:54:50;;;;;;;12.63;4.45;;;;;;;;;;6340029;22;20131;-93
2023/03/23 02:57:17;;;;;;;12.88;5.88;;;;;;;;;;6287693;22;20061;-93
2023/03/23 02:59:43;;;;;;;10.80;3.67;;;;;;;;;;6289028;22;20018;-93
2023/03/23 03:02:40;;;;;;;11.20;4.85;;;;;;;;;;6312376;22;20007;-93
2023/03/23 03:05:26;;;;;;;7.43;2.65;;;;;;;;;;6283025;22;20053;-92
2023/03/23 03:08:07;;;;;;;6.55;4.03;;;;;;;;;;6311552;22;20006;-92
2023/03/23 03:10:38;;;;;;;9.77;4.13;;;;;;;;;;6312051;22;20045;-93
2023/03/23 03:13:11;;;;;;;11.18;3.90;;;;;;;;;;6310926;22;20013;-92
2023/03/23 03:15:45;;;;;;;10.85;4.25;;;;;;;;;;6312343;22;20014;-92
2023/03/23 03:18:35;;;;;;;6.15;3.05;;;;;;;;;;6339849;22;20344;-92
2023/03/23 03:21:25;;;;;;;10.68;3.03;;;;;;;;;;6290804;22;20071;-92
2023/03/23 03:23:51;;;;;;;5.55;2.60;;;;;;;;;;6310951;22;20022;-92
2023/03/23 03:26:20;;;;;;;9.70;2.75;;;;;;;;;;6311992;22;20007;-93
2023/03/23 03:28:47;;;;;;;8.70;4.80;;;;;;;;;;6286888;22;20021;-93
2023/03/23 03:31:14;;;;;;;10.40;3.35;;;;;;;;;;6310487;22;20002;-92
2023/03/23 03:33:41;;;;;;;10.05;3.88;;;;;;;;;;6312882;22;20034;-92
2023/03/23 03:36:08;;;;;;;7.93;1.77;;;;;;;;;;6312067;22;20011;-93
2023/03/23 03:38:48;;;;;;;6.60;3.47;;;;;;;;;;6286738;22;20089;-93
2023/03/23 03:41:15;;;;;;;7.78;3.00;;;;;;;;;;6339394;22;20013;-93
2023/03/23 03:43:41;;;;;;;7.70;2.15;;;;;;;;;;6285651;22;20031;-93
2023/03/23 03:46:07;;;;;;;6.78;2.53;;;;;;;;;;6311554;22;20003;-92
2023/03/23 03:48:33;;;;;;;7.55;2.22;;;;;;;;;;6287553;22;20011;-93
2023/03/23 03:51:00;;;;;;;8.65;2.72;;;;;;;;;;6313008;22;20007;-92
2023/03/23 03:53:27;;;;;;;8.60;3.10;;;;;;;;;;6312793;22;20010;-91
2023/03/23 03:55:56;;;;;;;7.95;3.20;;;;;;;;;;6312323;22;20011;-92
2023/03/23 03:58:36;;;;;;;3.80;1.92;;;;;;;;;;6316465;22;20018;-93
2023/03/23 04:01:03;;;;;;;9.55;4.28;;;;;;;;;;6287706;22;20381;-90
2023/03/23 04:03:29;;;;;;;7.30;2.50;;;;;;;;;;6313759;22;20025;-94
2023/03/23 04:06:00;;;;;;;4.70;2.33;;;;;;;;;;6287827;22;20033;-93
2023/03/23 04:08:26;;;;;;;11.68;3.05;;;;;;;;;;6289043;22;20053;-91
2023/03/23 04:10:53;;;;;;;8.18;2.58;;;;;;;;;;6287896;22;20045;-93
2023/03/23 04:13:20;;;;;;;7.30;2.15;;;;;;;;;;6313007;22;20009;-93
2023/03/23 04:15:47;;;;;;;6.47;2.15;;;;;;;;;;6310877;22;20083;-93
2023/03/23 04:18:14;;;;;;;8.50;2.30;;;;;;;;;;6310315;22;20021;-92
2023/03/23 04:20:48;;;;;;;6.35;2.08;;;;;;;;;;6288196;22;20006;-93
2023/03/23 04:23:22;;;;;;;1.60;1.27;;;;;;;;;;6288070;22;20030;-93
2023/03/23 04:25:49;;;;;;;10.57;1.55;;;;;;;;;;6290241;22;20040;-92
2023/03/23 04:28:18;;;;;;;1.23;0.88;;;;;;;;;;6289076;22;20449;-92
2023/03/23 04:30:48;;;;;;;6.03;1.15;;;;;;;;;;6313647;22;20009;-92
2023/03/23 04:33:15;;;;;;;7.43;1.85;;;;;;;;;;6289129;22;20014;-93
2023/03/23 04:35:45;;;;;;;3.90;1.85;;;;;;;;;;6316499;22;20557;-93
2023/03/23 04:38:12;;;;;;;4.10;1.70;;;;;;;;;;6313834;22;20014;-93
2023/03/23 04:40:39;;;;;;;5.20;2.35;;;;;;;;;;6315069;22;20006;-92
2023/03/23 04:43:07;;;;;;;2.75;1.33;;;;;;;;;;6288857;22;20033;-93
2023/03/23 04:45:41;;;;;;;1.45;0.98;;;;;;;;;;6290753;22;20009;-94
2023/03/23 04:48:09;;;;;;;4.93;1.40;;;;;;;;;;6315184;22;20208;-93
2023/03/23 04:50:41;;;;;;;4.57;0.85;;;;;;;;;;6288694;22;20011;-93
2023/03/23 04:53:07;;;;;;;7.00;1.77;;;;;;;;;;6313938;22;20009;-93
2023/03/23 04:55:36;;;;;;;4.55;1.63;;;;;;;;;;6288532;22;20017;-95
2023/03/23 04:58:06;;;;;;;3.17;1.10;;;;;;;;;;6289188;22;20568;-94
2023/03/23 05:00:33;;;;;;;8.40;1.67;;;;;;;;;;6316526;22;20109;-93
2023/03/23 05:03:00;;;;;;;10.77;2.08;;;;;;;;;;6313232;22;20010;-94
2023/03/23 05:05:29;;;;;;;5.80;1.75;;;;;;;;;;6314571;22;20009;-93
2023/03/23 05:07:55;;;;;;;11.32;1.33;;;;;;;;;;6288832;22;20056;-93
2023/03/23 05:10:22;;;;;;;2.88;1.60;;;;;;;;;;6312440;22;20451;-93
2023/03/23 05:12:49;;;;;;;10.82;1.98;;;;;;;;;;6312924;22;20014;-91
2023/03/23 05:15:16;;;;;;;9.82;1.17;;;;;;;;;;6287934;22;20380;-94
2023/03/23 05:17:48;;;;;;;5.22;1.55;;;;;;;;;;6287622;22;20095;-94
2023/03/23 05:20:19;;;;;;;13.05;2.38;;;;;;;;;;6288819;22;20010;-94
2023/03/23 05:22:49;;;;;;;11.18;3.05;;;;;;;;;;6288532;22;20011;-93
2023/03/23 05:25:18;;;;;;;7.90;1.73;;;;;;;;;;6315210;22;20082;-92
2023/03/23 05:27:48;;;;;;;2.85;1.70;;;;;;;;;;6289145;22;20090;-94
2023/03/23 05:30:18;;;;;;;8.65;3.15;;;;;;;;;;6313665;22;20060;-94
2023/03/23 05:32:50;;;;;;;10.65;3.30;;;;;;;;;;6289684;22;20018;-93
2023/03/23 05:35:17;;;;;;;7.60;2.58;;;;;;;;;;6290487;22;20071;-92
2023/03/23 05:37:43;;;;;;;3.53;1.60;;;;;;;;;;6314342;22;20014;-93
2023/03/23 05:40:19;;;;;;;16.58;3.42;;;;;;;;;;6289149;22;20030;-93
2023/03/23 05:42:49;;;;;;;8.73;2.88;;;;;;;;;;6288109;22;20010;-94
2023/03/23 05:45:16;;;;;;;5.13;2.13;;;;;;;;;;6288268;22;20014;-92
2023/03/23 05:47:42;;;;;;;10.10;3.00;;;;;;;;;;6314691;22;20448;-94
2023/03/23 05:50:09;;;;;;;11.27;2.83;;;;;;;;;;6288437;22;20006;-93
2023/03/23 05:52:36;;;;;;;17.48;2.70;;;;;;;;;;6289722;22;20011;-93
2023/03/23 05:55:03;;;;;;;5.65;1.02;;;;;;;;;;6289259;22;20011;-92
2023/03/23 05:57:30;;;;;;;12.30;3.72;;;;;;;;;;6341365;22;20003;-94
2023/03/23 05:59:57;;;;;;;27.58;4.22;;;;;;;;;;6292434;22;20079;-93
2023/03/23 06:02:24;;;;;;;14.68;2.95;;;;;;;;;;6313573;22;19998;-94
2023/03/23 06:04:57;;;;;;;10.57;2.97;;;;;;;;;;6288557;22;20003;-93
2023/03/23 06:07:24;;;;;;;11.77;3.78;;;;;;;;;;6315600;22;20003;-93
2023/03/23 06:09:50;;;;;;;11.07;2.17;;;;;;;;;;6315003;22;20003;-94
2023/03/23 06:12:19;;;;;;;13.30;2.78;;;;;;;;;;6289392;22;20530;-93
2023/03/23 06:14:51;;;;;;;20.88;3.58;;;;;;;;;;6289717;22;20003;-93
2023/03/23 06:17:17;;;;;;;22.65;3.58;;;;;;;;;;6312824;22;20003;-93
2023/03/23 06:19:46;;;;;;;20.55;2.95;;;;;;;;;;6313816;22;20061;-93
2023/03/23 06:22:14;;;;;;;22.95;3.95;;;;;;;;;;6315483;22;20080;-93
2023/03/23 06:24:40;;;;;;;18.98;3.15;;;;;;;;;;6313368;22;20007;-92
2023/03/23 06:27:09;;;;;;;17.67;3.42;;;;;;;;;;6314217;22;19999;-93
2023/03/23 06:29:36;;;;;;;17.42;2.42;;;;;;;;;;6289468;22;20037;-91
2023/03/23 06:32:03;;;;;;;9.20;2.28;;;;;;;;;;6314052;22;20003;-93
2023/03/23 06:34:29;;;;;;;22.30;3.75;;;;;;;;;;6314647;22;20014;-92
2023/03/23 06:36:56;;;;;;;14.20;2.22;;;;;;;;;;6315237;22;20034;-93
2023/03/23 06:39:23;;;;;;;24.42;2.92;;;;;;;;;;6288462;22;20036;-93
2023/03/23 06:41:49;;;;;;;21.63;2.88;;;;;;;;;;6290221;22;20032;-93
2023/03/23 06:44:16;;;;;;;10.43;2.75;;;;;;;;;;6314431;22;20007;-93
2023/03/23 06:46:42;;;;;;;15.90;2.47;;;;;;;;;;6289853;22;20007;-93
2023/03/23 06:49:09;;;;;;;13.50;3.22;;;;;;;;;;6290059;22;20014;-92
2023/03/23 06:51:36;;;;;;;19.90;3.95;;;;;;;;;;6290466;22;20036;-93
2023/03/23 06:54:04;;;;;;;7.13;1.40;;;;;;;;;;6342913;22;20010;-93
2023/03/23 06:56:31;;;;;;;7.82;1.15;;;;;;;;;;6316868;22;20007;-92
2023/03/23 06:58:57;;;;;;;12.82;1.67;;;;;;;;;;6296471;22;20006;-93
2023/03/23 07:01:28;;;;;;;7.13;2.03;;;;;;;;;;6351533;22;20006;-94
2023/03/23 07:03:55;;;;;;;14.68;2.35;;;;;;;;;;6349472;22;19998;-93
2023/03/23 07:06:22;;;;;;;5.75;1.70;;;;;;;;;;6348803;22;20002;-93
2023/03/23 07:08:50;;;;;;;7.18;1.45;;;;;;;;;;6325818;22;20075;-92
2023/03/23 07:11:16;;;;;;;9.30;2.10;;;;;;;;;;6352508;22;20565;-94
2023/03/23 07:13:43;;;;;;;3.33;1.25;;;;;;;;;;6327510;22;20024;-93
2023/03/23 07:16:10;;;;;;;11.98;2.03;;;;;;;;;;6334806;22;20034;-94
2023/03/23 07:18:40;;;;;;;15.35;1.65;;;;;;;;;;6337077;22;20026;-92
2023/03/23 07:21:07;;;;;;;15.27;3.58;;;;;;;;;;6390983;22;20005;-93
2023/03/23 07:23:34;;;;;;;13.27;2.63;;;;;;;;;;6363522;22;20014;-94
2023/03/23 07:26:03;;;;;;;11.15;2.60;;;;;;;;;;6358705;22;20006;-92
2023/03/23 07:28:36;;;;;;;11.98;3.17;;;;;;;;;;6356248;22;20510;-92
2023/03/23 07:31:22;;;;;;;13.23;3.15;;;;;;;;;;6328557;22;20069;-94
2023/03/23 07:33:48;;;;;;;15.80;3.20;;;;;;;;;;6350596;22;20007;-93
2023/03/23 07:36:15;;;;;;;25.75;3.47;;;;;;;;;;6352244;22;20006;-92
2023/03/23 07:38:41;;;;;;;21.02;2.92;;;;;;;;;;6351927;22;20007;-93
2023/03/23 07:41:08;;;;;;;30.15;3.88;;;;;;;;;;6328677;22;20454;-92
2023/03/23 07:43:37;;;;;;;20.65;2.38;;;;;;;;;;6352093;22;20002;-93
2023/03/23 07:46:03;;;;;;;12.45;2.90;;;;;;;;;;6325757;22;20084;-94
2023/03/23 07:48:30;;;;;;;15.27;2.40;;;;;;;;;;6326660;22;20010;-93
2023/03/23 07:56:23;;;;;;;19.02;3.75;;;;;;;;;;6295271;22;20031;-89
2023/03/23 07:59:04;;;;;;;18.83;3.28;;;;;;;;;;6324577;22;20070;-92
2023/03/23 08:01:30;;;;;;;44.45;4.03;;;;;;;;;;6298968;22;20095;-90
2023/03/23 08:03:57;;;;;;;27.50;4.80;;;;;;;;;;6271584;22;20008;-90
2023/03/23 08:06:29;;;;;;;18.55;3.80;;;;;;;;;;6300825;22;20012;-93
2023/03/23 08:08:56;;;;;;;34.53;4.82;;;;;;;;;;6273880;22;20000;-91
2023/03/23 08:11:23;;;;;;;25.08;4.03;;;;;;;;;;6300834;22;19991;-92
2023/03/23 08:13:49;;;;;;;30.10;4.55;;;;;;;;;;6273864;22;20016;-92
2023/03/23 08:16:16;;;;;;;6.97;2.78;;;;;;;;;;6296282;22;20073;-91
2023/03/23 08:18:43;;;;;;;40.85;5.20;;;;;;;;;;6291220;22;20003;-91
2023/03/23 08:21:18;;;;;;;28.80;4.50;;;;;;;;;;6291757;22;20034;-92
2023/03/23 08:23:45;;;;;;;15.57;4.15;;;;;;;;;;6267703;22;20050;-92
2023/03/23 08:26:12;;;;;;;33.50;4.53;;;;;;;;;;6317288;22;20000;-92
2023/03/23 08:28:43;;;;;;;19.63;3.08;;;;;;;;;;6290610;22;20082;-91
2023/03/23 08:31:17;;;;;;;22.30;3.88;;;;;;;;;;6287942;22;20014;-92
2023/03/23 08:33:47;;;;;;;35.65;3.40;;;;;;;;;;6286954;22;20075;-93
2023/03/23 08:36:17;;;;;;;31.23;4.00;;;;;;;;;;6262752;22;20011;-92
2023/03/23 08:38:45;;;;;;;26.98;4.88;;;;;;;;;;6288494;22;20014;-90
2023/03/23 08:41:11;;;;;;;26.45;3.38;;;;;;;;;;6263688;22;20038;-92
2023/03/23 08:46:20;;;;;;;24.92;4.18;;;;;;;;;;6310306;22;20475;-92
2023/03/23 08:51:32;;;;;;;23.00;4.32;;;;;;;;;;6320551;22;20784;-93
2023/03/23 08:56:54;;;;;;;22.27;3.13;;;;;;;;;;6320263;22;20113;-94
2023/03/23 08:59:22;;;;;;;32.65;4.88;;;;;;;;;;6304895;22;20072;-93
2023/03/23 09:30:25;;;;;;;25.30;4.00;;;;;;;;;;6314783;22;19915;-92
2023/03/23 09:32:51;;;;;;;26.52;4.63;;;;;;;;;;6287926;22;20061;-92
2023/03/23 10:45:19;;;;;;;18.20;3.67;;;;;;;;;;6250561;22;19979;-95
2023/03/23 12:55:35;;;;;;;11.10;3.00;;;;;;;;;;6317452;22;20084;-92
2023/03/23 12:58:17;;;;;;;12.57;2.42;;;;;;;;;;6295634;22;20019;-92
2023/03/23 13:00:52;;;;;;;11.88;2.28;;;;;;;;;;6295602;22;20003;-93
2023/03/23 13:03:35;;;;;;;14.73;2.50;;;;;;;;;;6322345;22;20045;-93
2023/03/23 13:06:29;;;;;;;6.35;2.17;;;;;;;;;;6295463;22;20055;-93
2023/03/23 13:09:06;;;;;;;11.75;1.92;;;;;;;;;;6296937;22;20015;-92
2023/03/23 13:11:36;;;;;;;8.75;1.92;;;;;;;;;;6296389;22;20015;-91
2023/03/23 13:17:20;;;;;;;13.52;2.63;;;;;;;;;;6316349;22;20042;-93
2023/03/23 13:19:53;;;;;;;15.60;2.33;;;;;;;;;;6168643;23;20137;-92
2023/03/23 13:22:27;;;;;;;16.23;1.88;;;;;;;;;;6299694;22;20010;-91
2023/03/23 13:25:03;;;;;;;8.23;2.28;;;;;;;;;;6263855;22;20003;-93
2023/03/23 13:32:55;;;;;;;8.98;1.70;;;;;;;;;;6267518;22;20024;-94
2023/03/23 13:35:21;;;;;;;19.83;3.08;;;;;;;;;;6270764;22;20007;-93
2023/03/23 13:37:51;;;;;;;11.50;2.45;;;;;;;;;;6295299;22;20006;-95
2023/03/23 13:40:17;;;;;;;19.38;3.42;;;;;;;;;;6295791;22;20082;-93
2023/03/23 13:42:56;;;;;;;13.05;2.42;;;;;;;;;;6292069;22;20053;-93
2023/03/23 13:45:24;;;;;;;13.38;3.35;;;;;;;;;;6291318;22;20372;-94
2023/03/23 13:48:02;;;;;;;21.05;3.05;;;;;;;;;;6318030;22;20444;-93
2023/03/23 13:50:30;;;;;;;16.23;3.97;;;;;;;;;;6291384;22;20027;-94
2023/03/23 13:53:01;;;;;;;16.38;2.97;;;;;;;;;;6289411;22;20003;-95
2023/03/23 13:55:46;;;;;;;23.48;3.03;;;;;;;;;;6292584;22;20065;-94
2023/03/23 13:58:24;;;;;;;28.65;5.10;;;;;;;;;;6294183;22;20441;-95
2023/03/23 14:01:11;;;;;;;13.68;2.22;;;;;;;;;;6294453;22;20448;-94
2023/03/23 14:03:43;;;;;;;10.82;1.85;;;;;;;;;;6294522;22;20059;-94
2023/03/23 14:06:16;;;;;;;9.57;2.20;;;;;;;;;;6267702;22;20011;-94
2023/03/23 14:08:44;;;;;;;14.43;2.30;;;;;;;;;;6295228;22;20007;-95
2023/03/23 14:11:27;;;;;;;11.98;2.00;;;;;;;;;;6294799;22;20089;-93
2023/03/23 14:14:15;;;;;;;17.02;2.63;;;;;;;;;;6294709;22;20063;-94
2023/03/23 14:16:44;;;;;;;6.65;1.70;;;;;;;;;;6321769;22;20007;-94
2023/03/23 14:19:30;;;;;;;17.92;2.83;;;;;;;;;;6296192;22;20018;-94
2023/03/23 14:21:58;;;;;;;21.08;3.08;;;;;;;;;;6294567;22;20007;-93
2023/03/23 14:24:27;;;;;;;18.55;2.00;;;;;;;;;;6321868;22;20369;-93
2023/03/23 14:27:02;;;;;;;13.07;2.22;;;;;;;;;;6295206;22;20082;-94
2023/03/23 14:29:29;;;;;;;16.92;4.03;;;;;;;;;;6270805;22;20096;-95
2023/03/23 14:31:59;;;;;;;20.20;2.70;;;;;;;;;;6294288;22;20003;-94
2023/03/23 14:34:39;;;;;;;57.70;4.22;;;;;;;;;;6297321;22;20018;-94
2023/03/23 14:37:23;;;;;;;14.48;3.30;;;;;;;;;;6300322;22;20090;-95
2023/03/23 14:40:03;;;;;;;11.75;2.60;;;;;;;;;;6322158;22;20003;-96
2023/03/23 14:42:42;;;;;;;10.27;2.80;;;;;;;;;;6300619;22;20007;-96
2023/03/23 14:45:12;;;;;;;11.82;1.95;;;;;;;;;;6321919;22;20010;-95
2023/03/23 14:47:44;;;;;;;13.63;2.72;;;;;;;;;;6322805;22;19994;-94
2023/03/23 14:50:29;;;;;;;9.50;2.00;;;;;;;;;;6298358;22;20485;-95
2023/03/23 14:53:03;;;;;;;17.23;1.75;;;;;;;;;;6322201;22;20025;-96
2023/03/23 14:55:31;;;;;;;9.27;2.15;;;;;;;;;;6321660;22;20063;-96
2023/03/23 14:58:07;;;;;;;4.90;1.67;;;;;;;;;;6296079;22;20011;-96
2023/03/23 15:00:33;;;;;;;;;;;;;;;;;;6325033;22;20082;-96
2023/03/23 15:03:01;;;;;;;8.57;2.33;;;;;;;;;;6324121;22;19899;-96
2023/03/23 15:05:33;;;;;;;7.57;2.72;;;;;;;;;;6323777;22;20074;-95
2023/03/23 15:08:32;;;;;;;4.75;1.75;;;;;;;;;;6299123;22;19994;-96
2023/03/23 15:11:06;;;;;;;6.90;2.00;;;;;;;;;;6315146;22;20014;-95
2023/03/23 15:13:33;;;;;;;14.80;1.88;;;;;;;;;;6324762;22;20401;-95
2023/03/23 15:16:08;;;;;;;10.30;1.95;;;;;;;;;;6323681;22;20408;-95
2023/03/23 15:18:36;;;;;;;7.30;1.60;;;;;;;;;;6323425;22;19992;-95
2023/03/23 15:21:10;;;;;;;16.08;1.90;;;;;;;;;;6323436;22;20054;-93
2023/03/23 15:23:41;;;;;;;9.10;1.63;;;;;;;;;;6323193;22;20033;-94
2023/03/23 15:26:17;;;;;;;5.47;1.75;;;;;;;;;;6316051;22;19999;-93
2023/03/23 15:28:43;;;;;;;7.78;1.55;;;;;;;;;;6315126;22;20007;-93
2023/03/23 15:31:09;;;;;;;9.10;1.70;;;;;;;;;;6289476;22;20018;-93
2023/03/23 15:33:37;;;;;;;9.52;1.90;;;;;;;;;;6289051;22;20040;-94
2023/03/23 15:36:07;;;;;;;8.55;2.40;;;;;;;;;;6289019;22;20102;-94
2023/03/23 16:25:39;;;;;;;11.45;3.33;;;;;;;;;;6286773;22;20356;-94
2023/03/23 16:28:13;;;;;;;13.55;2.72;;;;;;;;;;6289707;22;20003;-96
2023/03/23 16:30:39;;;;;;;15.77;3.50;;;;;;;;;;6287321;22;20010;-96
2023/03/23 16:33:06;;;;;;;13.95;2.65;;;;;;;;;;6285164;22;20067;-95
2023/03/23 16:35:32;;;;;;;14.70;3.17;;;;;;;;;;6283660;22;20007;-96
2023/03/23 16:38:13;;;;;;;12.48;2.55;;;;;;;;;;6286467;22;20035;-95
2023/03/23 16:40:40;;;;;;;10.73;2.20;;;;;;;;;;6310289;22;20029;-94
2023/03/23 16:43:06;;;;;;;12.32;2.80;;;;;;;;;;6309151;22;20054;-94
2023/03/23 16:45:32;;;;;;;14.40;3.10;;;;;;;;;;6284042;22;20034;-95
2023/03/23 16:48:00;;;;;;;22.23;3.28;;;;;;;;;;6308762;22;20711;-94
2023/03/23 16:50:28;;;;;;;13.73;2.38;;;;;;;;;;6284128;22;20440;-95
2023/03/23 16:52:55;;;;;;;30.23;4.28;;;;;;;;;;6309468;22;20053;-94
2023/03/23 16:55:21;;;;;;;11.32;1.95;;;;;;;;;;6309683;22;20353;-95
2023/03/23 16:57:47;;;;;;;18.23;3.08;;;;;;;;;;6284214;22;20035;-94
2023/03/23 17:00:28;;;;;;;13.45;3.50;;;;;;;;;;6310849;22;20007;-95
2023/03/23 17:02:58;;;;;;;16.63;2.85;;;;;;;;;;6287816;22;20063;-94
2023/03/23 17:05:26;;;;;;;13.70;3.03;;;;;;;;;;6286139;22;20007;-94
2023/03/23 17:07:54;;;;;;;7.75;2.47;;;;;;;;;;6310753;22;20003;-94
2023/03/23 17:10:21;;;;;;;23.15;2.80;;;;;;;;;;6284439;22;20063;-94
2023/03/23 17:12:47;;;;;;;18.73;3.15;;;;;;;;;;6309067;22;20090;-95
2023/03/23 17:15:13;;;;;;;13.75;2.35;;;;;;;;;;6309949;22;20505;-94
2023/03/23 17:17:39;;;;;;;18.10;3.33;;;;;;;;;;6283972;22;20082;-95
2023/03/23 17:20:06;;;;;;;11.65;2.40;;;;;;;;;;6283034;22;20017;-94
2023/03/23 17:22:32;;;;;;;9.77;2.90;;;;;;;;;;6309605;22;20519;-95
2023/03/23 17:25:07;;;;;;;14.60;3.33;;;;;;;;;;6309510;22;20027;-95
2023/03/23 17:27:33;;;;;;;21.65;3.55;;;;;;;;;;6257225;22;20379;-95
2023/03/23 17:29:59;;;;;;;29.17;4.30;;;;;;;;;;6283758;22;20063;-93
2023/03/23 17:32:25;;;;;;;21.40;2.97;;;;;;;;;;6284185;22;20015;-92
2023/03/23 17:34:55;;;;;;;23.42;5.05;;;;;;;;;;6259276;22;20030;-92
2023/03/23 17:37:21;;;;;;;11.00;2.38;;;;;;;;;;6284361;22;20039;-94
2023/03/23 17:39:47;;;;;;;19.98;3.47;;;;;;;;;;6283838;22;20003;-93
2023/03/23 17:42:14;;;;;;;11.02;2.60;;;;;;;;;;6283251;22;20425;-93
2023/03/23 17:44:40;;;;;;;17.15;3.10;;;;;;;;;;6257303;22;20433;-94
2023/03/23 17:47:08;;;;;;;11.48;3.17;;;;;;;;;;6283558;22;20385;-93
2023/03/23 17:49:37;;;;;;;23.67;3.30;;;;;;;;;;6287876;22;20071;-93
2023/03/23 17:52:03;;;;;;;16.33;2.60;;;;;;;;;;6287232;22;20049;-93
2023/03/23 17:54:30;;;;;;;23.05;3.60;;;;;;;;;;6261516;22;20015;-93
2023/03/23 17:56:57;;;;;;;12.93;3.17;;;;;;;;;;6260400;22;20452;-92
2023/03/23 17:59:28;;;;;;;18.38;3.28;;;;;;;;;;6283375;22;20011;-93
2023/03/23 18:01:54;;;;;;;29.15;3.97;;;;;;;;;;6284279;22;19999;-94
2023/03/23 18:04:21;;;;;;;18.40;3.95;;;;;;;;;;6259815;22;20007;-94
2023/03/23 18:06:47;;;;;;;24.48;3.75;;;;;;;;;;6258960;22;20003;-94
2023/03/23 18:09:14;;;;;;;23.77;4.43;;;;;;;;;;6286240;22;20018;-95
2023/03/23 18:11:40;;;;;;;19.10;3.22;;;;;;;;;;6287258;22;20004;-94
2023/03/23 18:14:07;;;;;;;22.52;4.05;;;;;;;;;;6287964;22;20011;-95
2023/03/23 18:16:33;;;;;;;17.20;3.03;;;;;;;;;;6287831;22;20341;-95
2023/03/23 18:18:59;;;;;;;16.45;3.17;;;;;;;;;;6288241;22;20014;-94
2023/03/23 18:21:26;;;;;;;25.60;3.05;;;;;;;;;;6264406;22;20068;-94
2023/03/23 18:23:52;;;;;;;16.45;3.70;;;;;;;;;;6290423;22;20086;-95
2023/03/23 18:26:29;;;;;;;16.40;2.85;;;;;;;;;;6310223;22;20015;-94
2023/03/23 18:28:55;;;;;;;16.30;2.67;;;;;;;;;;6296566;22;20014;-95
2023/03/23 18:31:22;;;;;;;21.85;3.45;;;;;;;;;;6295329;22;20011;-95
2023/03/23 18:33:49;;;;;;;13.48;3.53;;;;;;;;;;6297921;22;20050;-94
2023/03/23 18:36:16;;;;;;;19.73;3.10;;;;;;;;;;6325220;22;20003;-95
2023/03/23 18:38:44;;;;;;;20.52;3.20;;;;;;;;;;6321574;22;20016;-96
2023/03/23 18:41:10;;;;;;;25.40;3.95;;;;;;;;;;6319270;22;20008;-95
2023/03/23 18:43:37;;;;;;;22.77;3.30;;;;;;;;;;6317539;22;20311;-94
2023/03/23 18:46:03;;;;;;;18.02;4.32;;;;;;;;;;6313342;22;20045;-94
2023/03/23 18:48:30;;;;;;;18.55;3.47;;;;;;;;;;6312849;22;20007;-93
2023/03/23 18:50:58;;;;;;;13.50;2.97;;;;;;;;;;6312687;22;20008;-94
2023/03/23 18:53:25;;;;;;;16.80;3.10;;;;;;;;;;6313539;22;20035;-94
2023/03/23 18:55:52;;;;;;;18.13;3.25;;;;;;;;;;6313437;22;20019;-94
2023/03/23 18:58:18;;;;;;;14.65;3.35;;;;;;;;;;6312413;22;20011;-95
2023/03/23 19:00:57;;;;;;;22.05;4.97;;;;;;;;;;6311492;22;19999;-94
2023/03/23 19:03:23;;;;;;;25.17;7.05;;;;;;;;;;6310825;22;20007;-93
2023/03/23 19:05:51;;;;;;;30.52;7.97;;;;;;;;;;6306419;22;20034;-95
2023/03/23 19:08:17;;;;;;;31.33;8.95;;;;;;;;;;6284539;22;20011;-94
2023/03/23 19:10:43;;;;;;;23.08;8.70;;;;;;;;;;6284598;22;20015;-94
2023/03/23 19:13:12;;;;;;;16.42;4.50;;;;;;;;;;6284763;22;20094;-95
2023/03/23 19:15:40;;;;;;;22.48;4.25;;;;;;;;;;6285491;22;20014;-95
2023/03/23 19:18:09;;;;;;;20.00;3.80;;;;;;;;;;6310859;22;20018;-94
2023/03/23 19:20:35;;;;;;;17.05;3.28;;;;;;;;;;6286516;22;20091;-94
2023/03/23 19:23:01;;;;;;;19.45;3.20;;;;;;;;;;6285602;22;20083;-95
2023/03/23 19:25:27;;;;;;;14.80;2.63;;;;;;;;;;6285934;22;20081;-94
2023/03/23 19:27:59;;;;;;;18.00;3.22;;;;;;;;;;6308828;22;20018;-93
2023/03/23 19:30:26;;;;;;;13.48;3.22;;;;;;;;;;6284256;22;20018;-94
2023/03/23 19:32:52;;;;;;;9.25;3.13;;;;;;;;;;6284728;22;19999;-96
2023/03/23 19:35:24;;;;;;;29.35;4.25;;;;;;;;;;6284123;22;20192;-96
2023/03/23 19:37:50;;;;;;;11.25;2.63;;;;;;;;;;6308793;22;20050;-94
2023/03/23 19:40:17;;;;;;;6.25;2.13;;;;;;;;;;6284316;22;20090;-95
2023/03/23 19:42:43;;;;;;;11.05;2.55;;;;;;;;;;6284132;22;20047;-93